Terminal Aerodrome Forecast
Issued by NWS Binghamton, NY

Home | Current Version | Previous Version | Text Only | Print | Product List | Glossary On
Versions: 1 2 3 4 5 6 7 8 9 10 11 12 13 14 15 16
000
FTUS41 KBGM 252030 AAB
TAFBGM
TAF AMD
KBGM 252030Z 2521/2618 VRB05KT P6SM -SHRA OVC070
     FM252200 24007KT P6SM OVC120
     FM260100 28006KT P6SM SKC
     FM261500 30009KT P6SM FEW200=

USA.gov is the U.S. government's official web portal to all federal, state and local government web resources and services.